sensor_id;sensor_type;location;lat;lon;timestamp;pressure;altitude;pressure_sealevel;temperature;humidity
9235;BME280;4652;42.716;23.218;2023-07-29T00:21:11;94648.94;;;15.70;100.00
9235;BME280;4652;42.716;23.218;2023-07-29T00:27:55;94659.03;;;15.44;100.00
9235;BME280;4652;42.716;23.218;2023-07-29T00:34:37;94648.53;;;15.34;100.00
9235;BME280;4652;42.716;23.218;2023-07-29T02:01:37;94645.41;;;14.46;100.00
9235;BME280;4652;42.716;23.218;2023-07-29T02:08:19;94647.59;;;14.27;100.00
9235;BME280;4652;42.716;23.218;2023-07-29T02:15:01;94659.06;;;14.24;100.00
9235;BME280;4652;42.716;23.218;2023-07-29T02:21:45;94647.53;;;14.01;100.00
9235;BME280;4652;42.716;23.218;2023-07-29T02:28:26;94650.34;;;13.88;100.00
9235;BME280;4652;42.716;23.218;2023-07-29T02:35:08;94654.91;;;13.79;100.00
9235;BME280;4652;42.716;23.218;2023-07-29T02:41:52;94650.78;;;13.81;100.00
9235;BME280;4652;42.716;23.218;2023-07-29T02:48:35;94666.72;;;13.83;100.00
9235;BME280;4652;42.716;23.218;2023-07-29T02:55:17;94667.84;;;13.82;100.00
9235;BME280;4652;42.716;23.218;2023-07-29T03:02:01;94679.66;;;13.86;100.00
9235;BME280;4652;42.716;23.218;2023-07-29T03:08:42;94681.22;;;13.87;100.00
9235;BME280;4652;42.716;23.218;2023-07-29T03:15:25;94671.91;;;13.71;100.00
9235;BME280;4652;42.716;23.218;2023-07-29T03:22:08;94688.97;;;13.71;100.00
9235;BME280;4652;42.716;23.218;2023-07-29T03:43:47;94668.97;;;14.37;100.00
9235;BME280;4652;42.716;23.218;2023-07-29T04:54:21;94686.75;;;18.24;100.00
9235;BME280;4652;42.716;23.218;2023-07-29T05:01:03;94699.22;;;18.97;100.00
9235;BME280;4652;42.716;23.218;2023-07-29T05:07:45;94711.81;;;18.50;100.00
9235;BME280;4652;42.716;23.218;2023-07-29T05:14:29;94705.41;;;18.22;100.00
9235;BME280;4652;42.716;23.218;2023-07-29T05:21:11;94697.91;;;18.43;100.00
9235;BME280;4652;42.716;23.218;2023-07-29T05:27:54;94706.16;;;18.95;100.00
9235;BME280;4652;42.716;23.218;2023-07-29T05:34:39;94700.31;;;19.20;100.00
9235;BME280;4652;42.716;23.218;2023-07-29T05:41:21;94720.38;;;19.80;100.00
9235;BME280;4652;42.716;23.218;2023-07-29T05:48:04;94716.13;;;20.26;88.99
9235;BME280;4652;42.716;23.218;2023-07-29T05:54:47;94711.94;;;20.63;84.27
9235;BME280;4652;42.716;23.218;2023-07-29T06:01:29;94719.13;;;21.02;85.02
9235;BME280;4652;42.716;23.218;2023-07-29T06:08:11;94708.91;;;21.53;78.01
9235;BME280;4652;42.716;23.218;2023-07-29T06:14:55;94692.97;;;22.20;75.10
9235;BME280;4652;42.716;23.218;2023-07-29T06:21:37;94694.13;;;22.64;69.22
9235;BME280;4652;42.716;23.218;2023-07-29T06:28:19;94688.34;;;26.10;59.01
9235;BME280;4652;42.716;23.218;2023-07-29T06:35:02;94674.13;;;30.06;47.91
9235;BME280;4652;42.716;23.218;2023-07-29T06:41:44;94676.13;;;30.86;45.69
9235;BME280;4652;42.716;23.218;2023-07-29T06:48:26;94673.16;;;34.41;40.17
9235;BME280;4652;42.716;23.218;2023-07-29T06:55:10;94675.59;;;35.74;38.08
9235;BME280;4652;42.716;23.218;2023-07-29T07:01:52;94683.91;;;37.98;36.14
9235;BME280;4652;42.716;23.218;2023-07-29T07:08:34;94678.88;;;38.20;35.08
9235;BME280;4652;42.716;23.218;2023-07-29T07:15:17;94675.00;;;38.36;34.28
9235;BME280;4652;42.716;23.218;2023-07-29T07:21:59;94669.97;;;37.67;34.78
9235;BME280;4652;42.716;23.218;2023-07-29T07:28:41;94672.63;;;38.35;34.13
9235;BME280;4652;42.716;23.218;2023-07-29T07:35:24;94655.09;;;37.40;35.26
9235;BME280;4652;42.716;23.218;2023-07-29T07:42:06;94662.81;;;33.55;40.21
9235;BME280;4652;42.716;23.218;2023-07-29T07:48:48;94657.13;;;30.27;43.96
9235;BME280;4652;42.716;23.218;2023-07-29T07:55:32;94658.81;;;29.91;45.37
9235;BME280;4652;42.716;23.218;2023-07-29T08:02:14;94650.88;;;28.78;47.80
9235;BME280;4652;42.716;23.218;2023-07-29T08:08:56;94653.97;;;29.31;47.09
9235;BME280;4652;42.716;23.218;2023-07-29T08:15:39;94668.56;;;28.94;48.18
9235;BME280;4652;42.716;23.218;2023-07-29T08:22:22;94663.38;;;28.45;46.97
9235;BME280;4652;42.716;23.218;2023-07-29T08:29:04;94662.84;;;29.12;46.24
9235;BME280;4652;42.716;23.218;2023-07-29T08:35:47;94662.63;;;28.96;46.35
9235;BME280;4652;42.716;23.218;2023-07-29T08:42:31;94648.50;;;29.24;47.15
9235;BME280;4652;42.716;23.218;2023-07-29T08:49:14;94648.66;;;29.78;43.34
9235;BME280;4652;42.716;23.218;2023-07-29T08:56:00;94642.38;;;29.74;42.40
9235;BME280;4652;42.716;23.218;2023-07-29T09:02:43;94632.22;;;30.74;42.54
9235;BME280;4652;42.716;23.218;2023-07-29T09:09:25;94612.41;;;31.38;41.86
9235;BME280;4652;42.716;23.218;2023-07-29T09:16:09;94615.59;;;31.17;40.75
9235;BME280;4652;42.716;23.218;2023-07-29T09:22:51;94614.47;;;30.68;41.16
9235;BME280;4652;42.716;23.218;2023-07-29T09:29:35;94610.63;;;30.58;42.02
9235;BME280;4652;42.716;23.218;2023-07-29T09:36:21;94601.13;;;31.84;40.81
9235;BME280;4652;42.716;23.218;2023-07-29T09:43:03;94582.00;;;31.27;38.22
9235;BME280;4652;42.716;23.218;2023-07-29T09:49:45;94595.81;;;30.15;41.01
9235;BME280;4652;42.716;23.218;2023-07-29T09:56:29;94597.53;;;29.75;40.70
9235;BME280;4652;42.716;23.218;2023-07-29T10:03:11;94585.59;;;30.35;41.65
9235;BME280;4652;42.716;23.218;2023-07-29T10:09:54;94572.38;;;30.16;40.09
9235;BME280;4652;42.716;23.218;2023-07-29T10:16:39;94570.56;;;30.56;41.03
9235;BME280;4652;42.716;23.218;2023-07-29T10:23:22;94548.28;;;30.59;40.75
9235;BME280;4652;42.716;23.218;2023-07-29T10:32:16;94535.25;;;30.76;39.89
9235;BME280;4652;42.716;23.218;2023-07-29T10:44:47;94530.81;;;31.02;38.00
9235;BME280;4652;42.716;23.218;2023-07-29T10:54:12;94525.75;;;31.36;39.29
9235;BME280;4652;42.716;23.218;2023-07-29T11:49:09;94490.31;;;31.76;35.73
9235;BME280;4652;42.716;23.218;2023-07-29T11:55:52;94474.22;;;31.83;36.64
9235;BME280;4652;42.716;23.218;2023-07-29T12:02:36;94479.56;;;32.26;34.17
9235;BME280;4652;42.716;23.218;2023-07-29T12:09:20;94462.03;;;31.93;35.60
9235;BME280;4652;42.716;23.218;2023-07-29T12:16:02;94461.47;;;32.02;34.55
9235;BME280;4652;42.716;23.218;2023-07-29T12:22:44;94463.78;;;31.87;36.21
9235;BME280;4652;42.716;23.218;2023-07-29T12:29:28;94458.84;;;32.11;35.32
9235;BME280;4652;42.716;23.218;2023-07-29T12:36:10;94459.63;;;32.28;35.80
9235;BME280;4652;42.716;23.218;2023-07-29T12:42:53;94442.66;;;32.06;34.06
9235;BME280;4652;42.716;23.218;2023-07-29T12:49:36;94445.47;;;32.51;36.84
9235;BME280;4652;42.716;23.218;2023-07-29T12:56:18;94440.41;;;32.62;35.24
9235;BME280;4652;42.716;23.218;2023-07-29T13:08:00;94421.09;;;32.84;33.86
9235;BME280;4652;42.716;23.218;2023-07-29T13:14:42;94434.59;;;32.40;34.80
9235;BME280;4652;42.716;23.218;2023-07-29T13:21:24;94442.47;;;32.13;36.12
9235;BME280;4652;42.716;23.218;2023-07-29T13:34:50;94425.38;;;31.63;36.59
9235;BME280;4652;42.716;23.218;2023-07-29T13:41:32;94412.06;;;31.86;34.77
9235;BME280;4652;42.716;23.218;2023-07-29T13:48:15;94403.69;;;31.54;34.50
9235;BME280;4652;42.716;23.218;2023-07-29T13:54:57;94386.25;;;31.34;36.61
9235;BME280;4652;42.716;23.218;2023-07-29T14:01:40;94399.50;;;31.62;36.04
9235;BME280;4652;42.716;23.218;2023-07-29T14:08:23;94388.81;;;31.61;37.20
9235;BME280;4652;42.716;23.218;2023-07-29T14:15:06;94372.75;;;31.32;38.41
9235;BME280;4652;42.716;23.218;2023-07-29T14:21:48;94383.41;;;30.62;40.29
9235;BME280;4652;42.716;23.218;2023-07-29T14:28:32;94371.72;;;30.28;40.59
9235;BME280;4652;42.716;23.218;2023-07-29T14:35:15;94387.06;;;29.93;42.58
9235;BME280;4652;42.716;23.218;2023-07-29T14:41:59;94375.00;;;30.23;42.27
9235;BME280;4652;42.716;23.218;2023-07-29T14:48:43;94380.50;;;30.26;41.50
9235;BME280;4652;42.716;23.218;2023-07-29T14:55:25;94377.09;;;29.96;42.75
9235;BME280;4652;42.716;23.218;2023-07-29T15:02:07;94381.75;;;29.76;44.48
9235;BME280;4652;42.716;23.218;2023-07-29T15:08:51;94396.22;;;29.40;43.60
9235;BME280;4652;42.716;23.218;2023-07-29T15:15:33;94365.81;;;29.03;44.82
9235;BME280;4652;42.716;23.218;2023-07-29T15:22:15;94400.94;;;29.43;45.52
9235;BME280;4652;42.716;23.218;2023-07-29T15:29:00;94395.31;;;29.47;44.65
9235;BME280;4652;42.716;23.218;2023-07-29T15:35:42;94400.34;;;29.79;44.23
9235;BME280;4652;42.716;23.218;2023-07-29T15:42:24;94401.94;;;30.03;44.52
9235;BME280;4652;42.716;23.218;2023-07-29T15:49:07;94398.69;;;30.08;44.56
9235;BME280;4652;42.716;23.218;2023-07-29T15:55:50;94394.00;;;29.82;45.10
9235;BME280;4652;42.716;23.218;2023-07-29T16:02:32;94412.44;;;29.68;45.52
9235;BME280;4652;42.716;23.218;2023-07-29T16:09:15;94409.78;;;29.35;45.40
9235;BME280;4652;42.716;23.218;2023-07-29T16:16:01;94425.78;;;29.20;46.13
9235;BME280;4652;42.716;23.218;2023-07-29T16:22:43;94402.94;;;28.82;46.59
9235;BME280;4652;42.716;23.218;2023-07-29T16:29:27;94436.59;;;28.81;47.15
9235;BME280;4652;42.716;23.218;2023-07-29T16:36:09;94455.09;;;28.53;47.00
9235;BME280;4652;42.716;23.218;2023-07-29T16:42:51;94465.63;;;28.32;47.01
9235;BME280;4652;42.716;23.218;2023-07-29T16:49:35;94477.69;;;28.11;47.20
9235;BME280;4652;42.716;23.218;2023-07-29T16:56:18;94482.56;;;27.93;47.14
9235;BME280;4652;42.716;23.218;2023-07-29T17:03:00;94489.44;;;27.71;46.95
9235;BME280;4652;42.716;23.218;2023-07-29T17:09:43;94492.31;;;27.57;47.04
9235;BME280;4652;42.716;23.218;2023-07-29T17:16:26;94490.44;;;27.39;46.72
9235;BME280;4652;42.716;23.218;2023-07-29T17:23:07;94490.47;;;27.29;47.21
9235;BME280;4652;42.716;23.218;2023-07-29T17:29:51;94498.88;;;27.11;47.31
9235;BME280;4652;42.716;23.218;2023-07-29T17:36:33;94506.78;;;27.02;47.93
9235;BME280;4652;42.716;23.218;2023-07-29T17:43:16;94523.44;;;26.88;48.67
9235;BME280;4652;42.716;23.218;2023-07-29T17:49:59;94525.41;;;26.77;49.11
9235;BME280;4652;42.716;23.218;2023-07-29T17:56:41;94527.41;;;26.66;49.78
9235;BME280;4652;42.716;23.218;2023-07-29T18:03:23;94535.34;;;26.50;51.57
9235;BME280;4652;42.716;23.218;2023-07-29T18:10:07;94539.31;;;26.31;51.89
9235;BME280;4652;42.716;23.218;2023-07-29T18:16:50;94517.22;;;26.13;52.48
9235;BME280;4652;42.716;23.218;2023-07-29T18:23:32;94546.38;;;25.86;53.18
9235;BME280;4652;42.716;23.218;2023-07-29T18:30:15;94554.19;;;25.56;55.28
9235;BME280;4652;42.716;23.218;2023-07-29T18:36:57;94561.16;;;25.22;57.65
9235;BME280;4652;42.716;23.218;2023-07-29T18:43:39;94565.63;;;24.75;64.51
9235;BME280;4652;42.716;23.218;2023-07-29T18:50:22;94538.50;;;24.16;67.33
9235;BME280;4652;42.716;23.218;2023-07-29T18:57:04;94572.09;;;23.91;70.77
9235;BME280;4652;42.716;23.218;2023-07-29T19:08:00;94574.47;;;23.23;77.26
9235;BME280;4652;42.716;23.218;2023-07-29T19:14:42;94587.75;;;22.88;79.83
9235;BME280;4652;42.716;23.218;2023-07-29T19:21:24;94589.50;;;22.47;79.79
9235;BME280;4652;42.716;23.218;2023-07-29T19:28:08;94591.88;;;22.22;86.12
9235;BME280;4652;42.716;23.218;2023-07-29T19:34:52;94601.53;;;21.90;91.63
9235;BME280;4652;42.716;23.218;2023-07-29T19:41:35;94593.94;;;21.60;91.25
9235;BME280;4652;42.716;23.218;2023-07-29T19:48:19;94593.31;;;21.48;92.73
9235;BME280;4652;42.716;23.218;2023-07-29T19:55:01;94568.03;;;21.16;100.00
9235;BME280;4652;42.716;23.218;2023-07-29T20:01:43;94604.09;;;21.18;99.99
9235;BME280;4652;42.716;23.218;2023-07-29T20:08:26;94599.00;;;20.82;100.00
9235;BME280;4652;42.716;23.218;2023-07-29T20:15:09;94615.13;;;20.68;100.00
9235;BME280;4652;42.716;23.218;2023-07-29T20:21:51;94614.69;;;20.66;100.00
9235;BME280;4652;42.716;23.218;2023-07-29T20:28:34;94614.09;;;20.57;100.00
9235;BME280;4652;42.716;23.218;2023-07-29T20:42:53;94603.44;;;20.52;100.00
9235;BME280;4652;42.716;23.218;2023-07-29T20:49:54;94612.00;;;20.34;100.00
9235;BME280;4652;42.716;23.218;2023-07-29T20:56:36;94609.72;;;20.21;100.00
9235;BME280;4652;42.716;23.218;2023-07-29T21:03:18;94614.03;;;20.06;100.00
9235;BME280;4652;42.716;23.218;2023-07-29T21:10:02;94616.69;;;19.87;100.00
9235;BME280;4652;42.716;23.218;2023-07-29T21:16:44;94612.53;;;19.77;100.00
9235;BME280;4652;42.716;23.218;2023-07-29T21:23:26;94610.31;;;19.52;100.00
9235;BME280;4652;42.716;23.218;2023-07-29T21:30:09;94614.34;;;19.42;100.00
9235;BME280;4652;42.716;23.218;2023-07-29T21:36:52;94623.81;;;19.32;100.00
9235;BME280;4652;42.716;23.218;2023-07-29T21:43:34;94622.03;;;19.24;100.00
9235;BME280;4652;42.716;23.218;2023-07-29T21:50:17;94623.19;;;19.11;100.00
9235;BME280;4652;42.716;23.218;2023-07-29T21:57:00;94620.84;;;19.10;100.00
9235;BME280;4652;42.716;23.218;2023-07-29T22:03:42;94602.16;;;18.84;100.00
9235;BME280;4652;42.716;23.218;2023-07-29T22:10:25;94623.09;;;18.80;100.00
9235;BME280;4652;42.716;23.218;2023-07-29T22:17:07;94621.09;;;18.65;100.00
9235;BME280;4652;42.716;23.218;2023-07-29T22:23:49;94622.25;;;18.52;100.00
9235;BME280;4652;42.716;23.218;2023-07-29T22:30:36;94622.59;;;18.38;100.00
9235;BME280;4652;42.716;23.218;2023-07-29T22:37:18;94632.47;;;18.31;100.00
9235;BME280;4652;42.716;23.218;2023-07-29T22:51:19;94622.69;;;18.17;100.00
9235;BME280;4652;42.716;23.218;2023-07-29T22:58:01;94635.44;;;18.13;100.00
9235;BME280;4652;42.716;23.218;2023-07-29T23:04:43;94628.41;;;18.00;100.00
9235;BME280;4652;42.716;23.218;2023-07-29T23:11:27;94632.22;;;17.87;100.00
9235;BME280;4652;42.716;23.218;2023-07-29T23:18:09;94571.22;;;17.43;100.00
9235;BME280;4652;42.716;23.218;2023-07-29T23:24:51;94633.91;;;17.68;100.00
9235;BME280;4652;42.716;23.218;2023-07-29T23:31:35;94631.53;;;17.66;100.00
9235;BME280;4652;42.716;23.218;2023-07-29T23:38:17;94631.06;;;17.64;100.00
9235;BME280;4652;42.716;23.218;2023-07-29T23:45:02;94633.94;;;17.47;100.00
9235;BME280;4652;42.716;23.218;2023-07-29T23:52:04;94636.28;;;17.57;100.00
